createdAt,value
2016-09-04T00:00:51.626Z,15.23
2016-09-04T00:01:51.600Z,15.21
2016-09-04T00:02:50.889Z,15.1
2016-09-04T00:03:50.837Z,15.09
2016-09-04T00:04:51.505Z,15.16
2016-09-04T00:05:50.772Z,15.16
2016-09-04T00:06:51.434Z,15.14
2016-09-04T00:07:51.413Z,15.07
2016-09-04T00:08:50.675Z,14.99
2016-09-04T00:09:51.339Z,15.09
2016-09-04T00:10:51.306Z,15.03
2016-09-04T00:11:51.268Z,15.03
2016-09-04T00:12:51.245Z,15.07
2016-09-04T00:13:51.205Z,14.96
2016-09-04T00:14:51.173Z,14.99
2016-09-04T00:15:50.445Z,14.89
2016-09-04T00:16:51.112Z,14.92
2016-09-04T00:17:51.079Z,14.94
2016-09-04T00:18:50.352Z,14.89
2016-09-04T00:19:50.313Z,14.91
2016-09-04T00:20:50.290Z,14.88
2016-09-04T00:21:50.249Z,14.92
2016-09-04T00:22:50.922Z,14.88
2016-09-04T00:23:50.190Z,14.86
2016-09-04T00:24:50.857Z,14.84
2016-09-04T00:25:50.820Z,14.83
2016-09-04T00:26:50.089Z,14.81
2016-09-04T00:27:50.058Z,14.72
2016-09-04T00:28:50.740Z,14.77
2016-09-04T00:29:50.690Z,14.73
2016-09-04T00:30:50.659Z,14.77
2016-09-04T00:31:49.927Z,14.77
2016-09-04T00:32:50.598Z,14.7
2016-09-04T00:33:49.860Z,14.7
2016-09-04T00:34:49.828Z,14.75
2016-09-04T00:35:50.494Z,14.68
2016-09-04T00:36:50.461Z,14.69
2016-09-04T00:37:50.436Z,14.72
2016-09-04T00:38:49.704Z,14.7
2016-09-04T00:39:50.362Z,14.57
2016-09-04T00:40:50.331Z,14.68
2016-09-04T00:41:50.295Z,14.64
2016-09-04T00:42:50.261Z,14.62
2016-09-04T00:43:50.233Z,14.62
2016-09-04T00:44:50.206Z,14.61
2016-09-04T00:45:50.171Z,14.62
2016-09-04T00:46:50.133Z,14.6
2016-09-04T00:47:50.097Z,14.58
2016-09-04T00:48:50.065Z,14.55
2016-09-04T00:49:49.337Z,14.6
2016-09-04T00:50:50.003Z,14.45
2016-09-04T00:51:49.282Z,14.57
2016-09-04T00:52:49.932Z,14.55
2016-09-04T00:53:49.917Z,14.47
2016-09-04T00:54:49.871Z,14.47
2016-09-04T00:55:49.834Z,14.47
2016-09-04T00:56:49.806Z,14.43
2016-09-04T00:57:49.768Z,14.47
2016-09-04T00:58:49.741Z,14.52
2016-09-04T00:59:49.010Z,14.47
2016-09-04T01:00:49.674Z,14.52
2016-09-04T01:01:49.644Z,14.45
2016-09-04T01:02:49.615Z,14.45
2016-09-04T01:03:49.581Z,14.43
2016-09-04T01:04:48.842Z,14.51
2016-09-04T01:05:49.507Z,14.47
2016-09-04T01:06:49.473Z,14.47
2016-09-04T01:07:49.452Z,14.47
2016-09-04T01:08:49.410Z,14.42
2016-09-04T01:09:49.378Z,14.47
2016-09-04T01:10:48.650Z,14.45
2016-09-04T01:11:49.311Z,14.46
2016-09-04T01:12:49.290Z,14.42
2016-09-04T01:13:48.547Z,14.52
2016-09-04T01:14:49.211Z,14.46
2016-09-04T01:15:49.181Z,14.52
2016-09-04T01:16:49.148Z,14.45
2016-09-04T01:17:48.417Z,14.46
2016-09-04T01:18:49.106Z,14.43
2016-09-04T01:19:48.357Z,14.45
2016-09-04T01:20:49.014Z,14.45
2016-09-04T01:21:48.284Z,14.51
2016-09-04T01:22:48.945Z,14.46
2016-09-04T01:23:48.221Z,14.43
2016-09-04T01:24:48.880Z,14.39
2016-09-04T01:25:48.842Z,14.39
2016-09-04T01:26:48.121Z,14.39
2016-09-04T01:27:48.788Z,14.39
2016-09-04T01:28:48.761Z,14.39
2016-09-04T01:29:48.718Z,14.4
2016-09-04T01:30:47.997Z,14.37
2016-09-04T01:31:48.655Z,14.36
2016-09-04T01:32:48.630Z,14.46
2016-09-04T01:33:48.584Z,14.37
2016-09-04T01:34:48.554Z,14.4
2016-09-04T01:35:48.514Z,14.42
2016-09-04T01:36:47.794Z,14.37
2016-09-04T01:37:48.451Z,14.33
2016-09-04T01:38:48.425Z,14.28
2016-09-04T01:39:48.389Z,14.33
2016-09-04T01:40:47.661Z,14.33
2016-09-04T01:41:48.327Z,14.33
2016-09-04T01:42:48.288Z,14.33
2016-09-04T01:43:48.263Z,14.35
2016-09-04T01:44:48.221Z,14.29
2016-09-04T01:45:47.496Z,14.28
2016-09-04T01:46:48.153Z,14.24
2016-09-04T01:47:48.126Z,14.21
2016-09-04T01:48:48.093Z,14.22
2016-09-04T01:49:48.067Z,14.22
2016-09-04T01:50:48.025Z,14.25
2016-09-04T01:51:47.997Z,14.27
2016-09-04T01:52:47.960Z,14.24
2016-09-04T01:53:47.930Z,14.21
2016-09-04T01:54:47.899Z,14.25
2016-09-04T01:55:47.165Z,14.21
2016-09-04T01:56:47.830Z,14.27
2016-09-04T01:57:47.095Z,14.17
2016-09-04T01:58:47.761Z,14.18
2016-09-04T01:59:47.735Z,14.22
2016-09-04T02:00:47.695Z,14.15
2016-09-04T02:01:47.672Z,14.18
2016-09-04T02:02:46.937Z,14.18
2016-09-04T02:03:46.898Z,14.12
2016-09-04T02:04:47.566Z,14.17
2016-09-04T02:05:46.834Z,14.17
2016-09-04T02:06:47.497Z,14.07
2016-09-04T02:07:47.465Z,14.14
2016-09-04T02:08:47.432Z,14.07
2016-09-04T02:09:47.403Z,14.06
2016-09-04T02:10:47.367Z,14.14
2016-09-04T02:11:47.338Z,14.07
2016-09-04T02:12:47.320Z,14.09
2016-09-04T02:13:46.571Z,14.1
2016-09-04T02:14:46.541Z,14.14
2016-09-04T02:15:46.501Z,14.12
2016-09-04T02:16:47.175Z,14.15
2016-09-04T02:17:47.133Z,14.07
2016-09-04T02:18:47.108Z,14.04
2016-09-04T02:19:47.075Z,14.09
2016-09-04T02:20:46.340Z,14.06
2016-09-04T02:21:47.004Z,13.99
2016-09-04T02:22:46.279Z,14.03
2016-09-04T02:23:46.938Z,14.02
2016-09-04T02:24:46.908Z,14.06
2016-09-04T02:25:46.865Z,13.91
2016-09-04T02:26:46.139Z,13.91
2016-09-04T02:27:46.804Z,13.92
2016-09-04T02:28:46.767Z,13.95
2016-09-04T02:29:46.039Z,13.92
2016-09-04T02:30:46.004Z,13.91
2016-09-04T02:31:46.669Z,13.97
2016-09-04T02:32:46.632Z,14.03
2016-09-04T02:33:45.910Z,13.96
2016-09-04T02:34:45.875Z,13.91
2016-09-04T02:35:46.536Z,13.95
2016-09-04T02:36:46.502Z,13.92
2016-09-04T02:37:45.779Z,13.92
2016-09-04T02:38:45.742Z,13.95
2016-09-04T02:39:46.401Z,13.95
2016-09-04T02:40:46.372Z,14.02
2016-09-04T02:41:46.361Z,13.95
2016-09-04T02:42:46.307Z,13.95
2016-09-04T02:43:46.273Z,13.96
2016-09-04T02:44:46.240Z,13.99
2016-09-04T02:45:44.823Z,13.89
2016-09-04T02:46:46.175Z,14.02
2016-09-04T02:47:45.438Z,13.89
2016-09-04T02:48:46.108Z,13.96
2016-09-04T02:49:46.072Z,13.95
2016-09-04T02:50:46.038Z,13.91
2016-09-04T02:51:46.003Z,13.91
2016-09-04T02:52:45.971Z,13.89
2016-09-04T02:53:45.246Z,13.89
2016-09-04T02:54:45.912Z,13.95
2016-09-04T02:55:45.869Z,13.97
2016-09-04T02:56:45.843Z,13.89
2016-09-04T02:57:45.803Z,13.88
2016-09-04T02:58:45.777Z,13.91
2016-09-04T02:59:45.741Z,13.89
2016-09-04T03:00:45.709Z,13.85
2016-09-04T03:01:45.674Z,13.89
2016-09-04T03:02:45.642Z,13.85
2016-09-04T03:03:45.604Z,13.88
2016-09-04T03:04:45.571Z,13.87
2016-09-04T03:05:44.841Z,13.89
2016-09-04T03:06:45.505Z,13.88
2016-09-04T03:07:45.473Z,13.88
2016-09-04T03:08:44.745Z,13.84
2016-09-04T03:09:45.506Z,13.87
2016-09-04T03:10:45.375Z,13.85
2016-09-04T03:11:44.642Z,13.78
2016-09-04T03:12:45.301Z,13.84
2016-09-04T03:13:43.885Z,13.79
2016-09-04T03:14:44.542Z,13.82
2016-09-04T03:15:45.207Z,13.87
2016-09-04T03:16:44.476Z,13.84
2016-09-04T03:17:44.437Z,13.78
2016-09-04T03:18:44.421Z,13.77
2016-09-04T03:19:45.073Z,13.77
2016-09-04T03:20:45.036Z,13.79
2016-09-04T03:21:45.006Z,13.81
2016-09-04T03:22:44.980Z,13.82
2016-09-04T03:23:44.248Z,13.78
2016-09-04T03:24:44.909Z,13.75
2016-09-04T03:25:44.873Z,13.77
2016-09-04T03:26:44.845Z,13.69
2016-09-04T03:27:44.806Z,13.7
2016-09-04T03:28:44.771Z,13.69
2016-09-04T03:29:43.367Z,13.69
2016-09-04T03:30:44.708Z,13.67
2016-09-04T03:31:44.677Z,13.67
2016-09-04T03:32:43.946Z,13.64
2016-09-04T03:33:43.912Z,13.64
2016-09-04T03:34:44.575Z,13.71
2016-09-04T03:35:44.604Z,13.63
2016-09-04T03:36:43.808Z,13.67
2016-09-04T03:37:43.788Z,13.63
2016-09-04T03:38:43.743Z,13.64
2016-09-04T03:39:43.713Z,13.66
2016-09-04T03:40:44.377Z,13.69
2016-09-04T03:41:44.344Z,13.7
2016-09-04T03:42:43.614Z,13.63
2016-09-04T03:43:44.275Z,13.66
2016-09-04T03:44:44.237Z,13.66
2016-09-04T03:45:44.210Z,13.64
2016-09-04T03:46:44.170Z,13.62
2016-09-04T03:47:44.141Z,13.75
2016-09-04T03:48:43.418Z,13.66
2016-09-04T03:49:43.378Z,13.69
2016-09-04T03:50:43.353Z,13.67
2016-09-04T03:51:43.315Z,13.66
2016-09-04T03:52:43.968Z,13.66
2016-09-04T03:53:43.938Z,13.66
2016-09-04T03:54:43.905Z,13.66
2016-09-04T03:55:43.870Z,13.64
2016-09-04T03:56:43.841Z,13.66
2016-09-04T03:57:43.113Z,13.66
2016-09-04T03:58:43.077Z,13.64
2016-09-04T03:59:43.746Z,13.7
2016-09-04T04:00:43.701Z,13.59
2016-09-04T04:01:43.002Z,13.62
2016-09-04T04:02:42.942Z,13.64
2016-09-04T04:03:43.604Z,13.62
2016-09-04T04:04:42.874Z,13.62
2016-09-04T04:05:43.538Z,13.55
2016-09-04T04:06:42.813Z,13.63
2016-09-04T04:07:43.470Z,13.63
2016-09-04T04:08:43.441Z,13.59
2016-09-04T04:09:43.411Z,13.55
2016-09-04T04:10:43.368Z,13.59
2016-09-04T04:11:43.340Z,13.6
2016-09-04T04:12:42.615Z,13.55
2016-09-04T04:13:42.573Z,13.54
2016-09-04T04:14:42.535Z,13.55
2016-09-04T04:15:43.267Z,13.55
2016-09-04T04:16:43.174Z,13.64
2016-09-04T04:17:43.145Z,13.57
2016-09-04T04:18:43.109Z,13.55
2016-09-04T04:19:43.069Z,13.57
2016-09-04T04:20:43.052Z,13.67
2016-09-04T04:21:43.002Z,13.57
2016-09-04T04:22:42.966Z,13.55
2016-09-04T04:23:42.242Z,13.52
2016-09-04T04:24:42.900Z,13.59
2016-09-04T04:25:42.865Z,13.52
2016-09-04T04:26:42.836Z,13.54
2016-09-04T04:27:42.804Z,13.55
2016-09-04T04:28:42.763Z,13.54
2016-09-04T04:29:42.735Z,13.6
2016-09-04T04:30:42.005Z,13.59
2016-09-04T04:31:41.977Z,13.57
2016-09-04T04:32:42.635Z,13.57
2016-09-04T04:33:42.600Z,13.59
2016-09-04T04:34:42.568Z,13.54
2016-09-04T04:35:42.534Z,13.67
2016-09-04T04:36:42.496Z,13.7
2016-09-04T04:37:42.473Z,13.59
2016-09-04T04:38:42.435Z,13.62
2016-09-04T04:39:42.406Z,13.67
2016-09-04T04:40:40.971Z,13.67
2016-09-04T04:41:41.642Z,13.64
2016-09-04T04:42:42.301Z,13.64
2016-09-04T04:43:42.263Z,13.69
2016-09-04T04:44:42.233Z,13.81
2016-09-04T04:45:41.498Z,13.73
2016-09-04T04:46:42.166Z,13.78
2016-09-04T04:47:41.433Z,13.77
2016-09-04T04:48:41.404Z,13.82
2016-09-04T04:49:41.367Z,13.81
2016-09-04T04:50:42.032Z,13.81
2016-09-04T04:51:41.998Z,13.85
2016-09-04T04:52:41.965Z,13.89
2016-09-04T04:53:41.239Z,13.96
2016-09-04T04:54:41.899Z,13.95
2016-09-04T04:55:41.168Z,13.92
2016-09-04T04:56:41.136Z,13.96
2016-09-04T04:57:41.797Z,14.04
2016-09-04T04:58:41.068Z,14.1
2016-09-04T04:59:41.038Z,14.12
2016-09-04T05:00:41.698Z,14.07
2016-09-04T05:01:40.968Z,14.15
2016-09-04T05:02:40.938Z,14.14
2016-09-04T05:03:41.599Z,14.24
2016-09-04T05:04:41.566Z,14.22
2016-09-04T05:05:40.841Z,14.29
2016-09-04T05:06:40.802Z,14.36
2016-09-04T05:07:41.469Z,14.32
2016-09-04T05:08:40.737Z,14.37
2016-09-04T05:09:41.402Z,14.45
2016-09-04T05:10:41.379Z,14.54
2016-09-04T05:11:40.640Z,14.5
2016-09-04T05:12:40.601Z,14.5
2016-09-04T05:13:41.269Z,14.58
2016-09-04T05:14:41.235Z,14.58
2016-09-04T05:15:40.514Z,14.68
2016-09-04T05:16:41.167Z,14.7
2016-09-04T05:17:41.134Z,14.83
2016-09-04T05:18:41.100Z,14.91
2016-09-04T05:19:40.371Z,14.95
2016-09-04T05:20:41.034Z,15.13
2016-09-04T05:21:41.005Z,15.19
2016-09-04T05:22:40.967Z,15.29
2016-09-04T05:23:40.242Z,15.59
2016-09-04T05:24:40.907Z,15.8
2016-09-04T05:25:40.869Z,16.24
2016-09-04T05:26:40.143Z,16.57
2016-09-04T05:27:40.806Z,17
2016-09-04T05:28:40.077Z,17.37
2016-09-04T05:29:40.753Z,17.52
2016-09-04T05:30:40.708Z,17.89
2016-09-04T05:31:40.673Z,18.05
2016-09-04T05:32:40.645Z,18.25
2016-09-04T05:33:39.923Z,18.52
2016-09-04T05:34:39.193Z,18.67
2016-09-04T05:35:40.554Z,18.63
2016-09-04T05:36:40.519Z,18.66
2016-09-04T05:37:39.795Z,18.75
2016-09-04T05:38:40.466Z,19.04
2016-09-04T05:39:39.038Z,19.23
2016-09-04T05:40:40.396Z,19.44
2016-09-04T05:41:39.674Z,19.73
2016-09-04T05:42:40.333Z,20.01
2016-09-04T05:43:40.311Z,20.35
2016-09-04T05:44:40.283Z,20.89
2016-09-04T05:45:39.549Z,21.1
2016-09-04T05:46:40.221Z,21.34
2016-09-04T05:47:39.487Z,21.52
2016-09-04T05:48:40.156Z,21.69
2016-09-04T05:49:40.128Z,21.75
2016-09-04T05:50:40.097Z,22.02
2016-09-04T05:51:40.072Z,22.02
2016-09-04T05:52:40.040Z,21.98
2016-09-04T05:53:39.384Z,21.67
2016-09-04T05:54:39.986Z,21.47
2016-09-04T05:55:39.954Z,21.25
2016-09-04T05:56:39.925Z,21.16
2016-09-04T05:57:39.898Z,21.1
2016-09-04T05:58:39.874Z,20.98
2016-09-04T05:59:39.844Z,20.98
2016-09-04T06:00:39.812Z,21.04
2016-09-04T06:01:39.087Z,20.99
2016-09-04T06:02:39.063Z,20.95
2016-09-04T06:03:39.743Z,20.89
2016-09-04T06:04:39.701Z,20.8
2016-09-04T06:05:38.284Z,20.69
2016-09-04T06:06:39.640Z,20.51
2016-09-04T06:07:39.623Z,20.42
2016-09-04T06:08:39.590Z,20.28
2016-09-04T06:09:39.557Z,20.16
2016-09-04T06:10:39.546Z,20.06
2016-09-04T06:11:39.513Z,19.98
2016-09-04T06:12:38.780Z,19.87
2016-09-04T06:13:39.444Z,19.73
2016-09-04T06:14:39.421Z,19.68
2016-09-04T06:15:39.394Z,19.55
2016-09-04T06:16:38.891Z,19.48
2016-09-04T06:17:38.637Z,19.46
2016-09-04T06:18:38.604Z,19.43
2016-09-04T06:19:39.270Z,19.4
2016-09-04T06:20:39.244Z,19.4
2016-09-04T06:21:39.215Z,19.47
2016-09-04T06:22:39.184Z,19.51
2016-09-04T06:23:39.168Z,19.5
2016-09-04T06:24:39.140Z,19.54
2016-09-04T06:25:37.703Z,19.5
2016-09-04T06:26:39.070Z,19.56
2016-09-04T06:27:38.338Z,19.63
2016-09-04T06:28:37.616Z,19.71
2016-09-04T06:29:38.284Z,19.76
2016-09-04T06:30:38.952Z,19.88
2016-09-04T06:31:38.921Z,19.99
2016-09-04T06:32:38.895Z,20.01
2016-09-04T06:33:38.862Z,20.05
2016-09-04T06:34:38.834Z,20.24
2016-09-04T06:35:37.411Z,20.43
2016-09-04T06:36:38.774Z,20.57
2016-09-04T06:37:38.751Z,20.66
2016-09-04T06:38:38.019Z,20.73
2016-09-04T06:39:38.686Z,20.87
2016-09-04T06:40:38.673Z,20.95
2016-09-04T06:41:38.639Z,20.99
2016-09-04T06:42:37.921Z,21.17
2016-09-04T06:43:37.886Z,21.22
2016-09-04T06:44:38.546Z,21.28
2016-09-04T06:45:38.518Z,21.43
2016-09-04T06:46:38.490Z,21.38
2016-09-04T06:47:38.453Z,21.42
2016-09-04T06:48:37.745Z,21.42
2016-09-04T06:49:37.708Z,21.37
2016-09-04T06:50:38.369Z,21.43
2016-09-04T06:51:38.346Z,21.46
2016-09-04T06:52:38.317Z,21.44
2016-09-04T06:53:38.292Z,21.62
2016-09-04T06:54:37.565Z,21.67
2016-09-04T06:55:38.231Z,21.86
2016-09-04T06:56:37.507Z,21.82
2016-09-04T06:57:38.179Z,21.91
2016-09-04T06:58:37.452Z,21.84
2016-09-04T06:59:38.119Z,21.98
2016-09-04T07:00:38.100Z,21.83
2016-09-04T07:01:37.363Z,21.91
2016-09-04T07:02:38.038Z,22.03
2016-09-04T07:03:37.313Z,22.09
2016-09-04T07:04:37.981Z,22.33
2016-09-04T07:05:37.259Z,22.64
2016-09-04T07:06:36.526Z,22.9
2016-09-04T07:07:37.199Z,23.19
2016-09-04T07:08:37.866Z,23.5
2016-09-04T07:09:37.833Z,23.85
2016-09-04T07:10:37.814Z,23.91
2016-09-04T07:11:36.395Z,24.32
2016-09-04T07:12:36.372Z,24.34
2016-09-04T07:13:37.040Z,24.32
2016-09-04T07:14:37.707Z,24.28
2016-09-04T07:15:37.678Z,24.21
2016-09-04T07:16:37.652Z,24.31
2016-09-04T07:17:37.635Z,24.08
2016-09-04T07:18:37.597Z,24
2016-09-04T07:19:36.881Z,23.83
2016-09-04T07:20:37.544Z,23.75
2016-09-04T07:21:37.522Z,23.69
2016-09-04T07:22:37.500Z,23.68
2016-09-04T07:23:36.767Z,23.61
2016-09-04T07:24:36.741Z,23.43
2016-09-04T07:25:37.408Z,23.4
2016-09-04T07:26:36.689Z,23.4
2016-09-04T07:27:37.356Z,23.39
2016-09-04T07:28:36.647Z,23.38
2016-09-04T07:29:37.304Z,23.32
2016-09-04T07:30:37.287Z,23.27
2016-09-04T07:31:36.555Z,23.35
2016-09-04T07:32:37.226Z,23.33
2016-09-04T07:33:37.200Z,23.27
2016-09-04T07:34:37.172Z,23.22
2016-09-04T07:35:37.153Z,23.15
2016-09-04T07:36:37.115Z,23.05
2016-09-04T07:37:37.089Z,23
2016-09-04T07:38:37.062Z,22.8
2016-09-04T07:39:37.032Z,22.83
2016-09-04T07:40:36.308Z,22.76
2016-09-04T07:41:36.985Z,22.85
2016-09-04T07:42:35.556Z,22.73
2016-09-04T07:43:36.237Z,22.62
2016-09-04T07:44:36.200Z,22.62
2016-09-04T07:45:36.871Z,22.58
2016-09-04T07:46:36.843Z,22.58
2016-09-04T07:47:36.119Z,22.49
2016-09-04T07:48:36.091Z,22.57
2016-09-04T07:49:36.755Z,22.58
2016-09-04T07:50:36.731Z,22.52
2016-09-04T07:51:36.716Z,22.64
2016-09-04T07:52:35.980Z,22.54
2016-09-04T07:53:36.649Z,22.61
2016-09-04T07:54:35.925Z,22.67
2016-09-04T07:55:35.899Z,22.72
2016-09-04T07:56:36.568Z,22.85
2016-09-04T07:57:35.842Z,22.98
2016-09-04T07:58:35.832Z,23.28
2016-09-04T07:59:35.786Z,23.69
2016-09-04T08:00:36.461Z,24
2016-09-04T08:01:36.435Z,24.28
2016-09-04T08:02:36.398Z,24.43
2016-09-04T08:03:36.382Z,24.64
2016-09-04T08:04:36.356Z,24.84
2016-09-04T08:05:36.323Z,24.9
2016-09-04T08:06:36.299Z,25.02
2016-09-04T08:07:36.272Z,24.99
2016-09-04T08:08:36.244Z,25.09
2016-09-04T08:09:35.522Z,25.27
2016-09-04T08:10:36.207Z,25.64
2016-09-04T08:11:35.466Z,26.52
2016-09-04T08:12:36.144Z,27.82
2016-09-04T08:13:36.115Z,28.98
2016-09-04T08:14:36.088Z,29.94
2016-09-04T08:15:36.062Z,30.51
2016-09-04T08:16:36.032Z,30.67
2016-09-04T08:17:36.008Z,30.6
2016-09-04T08:18:35.987Z,30.37
2016-09-04T08:19:35.962Z,29.95
2016-09-04T08:20:35.937Z,29.76
2016-09-04T08:21:35.914Z,29.49
2016-09-04T08:22:35.890Z,29.27
2016-09-04T08:23:35.865Z,29.41
2016-09-04T08:24:35.837Z,30.04
2016-09-04T08:25:35.817Z,30.89
2016-09-04T08:26:35.791Z,32.22
2016-09-04T08:27:34.379Z,33.66
2016-09-04T08:28:35.752Z,35.19
2016-09-04T08:29:35.728Z,36.27
2016-09-04T08:30:35.703Z,36.91
2016-09-04T08:31:35.676Z,37.51
2016-09-04T08:32:35.655Z,37.6
2016-09-04T08:33:35.633Z,37.67
2016-09-04T08:34:34.914Z,37.79
2016-09-04T08:35:35.634Z,38.07
2016-09-04T08:36:35.573Z,38.18
2016-09-04T08:37:35.549Z,38.26
2016-09-04T08:38:34.851Z,38.09
2016-09-04T08:39:35.505Z,38.06
2016-09-04T08:40:35.497Z,38.26
2016-09-04T08:41:35.468Z,38.41
2016-09-04T08:42:35.447Z,38.22
2016-09-04T08:43:34.729Z,37.81
2016-09-04T08:44:35.410Z,37.5
2016-09-04T08:45:35.409Z,37.55
2016-09-04T08:46:35.369Z,37.47
2016-09-04T08:47:35.352Z,36.93
2016-09-04T08:48:35.327Z,36.19
2016-09-04T08:49:35.309Z,35.4
2016-09-04T08:50:35.287Z,34.47
2016-09-04T08:51:34.572Z,33.63
2016-09-04T08:52:34.564Z,33.04
2016-09-04T08:53:33.844Z,32.38
2016-09-04T08:54:35.206Z,31.78
2016-09-04T08:55:34.487Z,31.26
2016-09-04T08:56:35.173Z,30.8
2016-09-04T08:57:34.449Z,30.37
2016-09-04T08:58:35.125Z,29.92
2016-09-04T08:59:35.103Z,29.53
2016-09-04T09:00:34.387Z,29.15
2016-09-04T09:01:35.056Z,28.86
2016-09-04T09:02:35.044Z,28.48
2016-09-04T09:03:35.045Z,28.21
2016-09-04T09:04:34.989Z,28
2016-09-04T09:05:34.980Z,27.72
2016-09-04T09:06:34.941Z,27.47
2016-09-04T09:07:34.927Z,27.24
2016-09-04T09:08:34.898Z,27.06
2016-09-04T09:09:34.872Z,26.92
2016-09-04T09:10:34.850Z,26.76
2016-09-04T09:11:34.831Z,26.54
2016-09-04T09:12:34.805Z,26.37
2016-09-04T09:13:34.773Z,26.28
2016-09-04T09:14:34.752Z,26.21
2016-09-04T09:15:34.033Z,26.13
2016-09-04T09:16:34.709Z,26.05
2016-09-04T09:17:33.980Z,25.91
2016-09-04T09:18:33.959Z,25.91
2016-09-04T09:19:34.631Z,25.8
2016-09-04T09:20:33.911Z,25.83
2016-09-04T09:21:34.602Z,25.69
2016-09-04T09:22:34.553Z,25.65
2016-09-04T09:23:34.529Z,25.67
2016-09-04T09:24:34.504Z,25.72
2016-09-04T09:25:33.780Z,25.73
2016-09-04T09:26:34.454Z,25.8
2016-09-04T09:27:33.740Z,25.87
2016-09-04T09:28:34.406Z,25.97
2016-09-04T09:29:33.682Z,26.1
2016-09-04T09:30:34.355Z,26.15
2016-09-04T09:31:34.341Z,26.37
2016-09-04T09:32:34.299Z,26.57
2016-09-04T09:33:34.273Z,26.81
2016-09-04T09:34:33.563Z,27.09
2016-09-04T09:35:34.225Z,27.32
2016-09-04T09:36:32.803Z,27.51
2016-09-04T09:37:34.177Z,27.77
2016-09-04T09:38:33.452Z,27.97
2016-09-04T09:39:34.131Z,28.19
2016-09-04T09:40:34.096Z,28.46
2016-09-04T09:41:34.074Z,28.49
2016-09-04T09:42:33.359Z,28.36
2016-09-04T09:43:34.031Z,28.09
2016-09-04T09:44:33.995Z,27.87
2016-09-04T09:45:33.977Z,27.77
2016-09-04T09:46:33.951Z,27.69
2016-09-04T09:47:33.231Z,27.74
2016-09-04T09:48:33.410Z,27.74
2016-09-04T09:49:34.018Z,27.65
2016-09-04T09:50:33.154Z,27.43
2016-09-04T09:51:33.827Z,27.18
2016-09-04T09:52:33.807Z,27.31
2016-09-04T09:53:33.785Z,27.31
2016-09-04T09:54:33.756Z,27.31
2016-09-04T09:55:33.038Z,27.24
2016-09-04T09:56:33.715Z,27.12
2016-09-04T09:57:33.677Z,26.95
2016-09-04T09:58:32.957Z,26.57
2016-09-04T09:59:32.945Z,26.29
2016-09-04T10:00:32.905Z,26.2
2016-09-04T10:01:33.581Z,25.94
2016-09-04T10:02:33.556Z,25.79
2016-09-04T10:03:33.532Z,25.7
2016-09-04T10:04:33.507Z,25.54
2016-09-04T10:05:32.780Z,25.3
2016-09-04T10:06:33.455Z,25.09
2016-09-04T10:07:33.430Z,24.98
2016-09-04T10:08:33.410Z,24.71
2016-09-04T10:09:33.377Z,24.46
2016-09-04T10:10:33.355Z,24.3
2016-09-04T10:11:33.328Z,24.3
2016-09-04T10:12:32.610Z,24.34
2016-09-04T10:13:32.579Z,24.45
2016-09-04T10:14:33.250Z,24.47
2016-09-04T10:15:31.832Z,24.78
2016-09-04T10:16:32.506Z,24.91
2016-09-04T10:17:33.169Z,25.15
2016-09-04T10:18:33.143Z,25.21
2016-09-04T10:19:33.120Z,25.33
2016-09-04T10:20:32.396Z,25.46
2016-09-04T10:21:33.072Z,25.62
2016-09-04T10:22:32.354Z,25.79
2016-09-04T10:23:33.011Z,26.09
2016-09-04T10:24:32.992Z,26.21
2016-09-04T10:25:32.271Z,26.33
2016-09-04T10:26:32.943Z,26.47
2016-09-04T10:27:32.912Z,26.58
2016-09-04T10:28:32.888Z,26.6
2016-09-04T10:29:32.167Z,26.66
2016-09-04T10:30:32.139Z,26.67
2016-09-04T10:31:32.819Z,26.72
2016-09-04T10:32:32.787Z,26.77
2016-09-04T10:33:32.064Z,26.92
2016-09-04T10:34:32.744Z,26.99
2016-09-04T10:35:32.015Z,27.13
2016-09-04T10:36:32.684Z,27.25
2016-09-04T10:37:32.656Z,27.19
2016-09-04T10:38:31.955Z,27.19
2016-09-04T10:39:31.910Z,27.24
2016-09-04T10:40:32.581Z,27.13
2016-09-04T10:41:32.557Z,27.22
2016-09-04T10:42:32.531Z,27.32
2016-09-04T10:43:32.508Z,27.27
2016-09-04T10:44:31.787Z,27.24
2016-09-04T10:45:31.760Z,27.32
2016-09-04T10:46:32.437Z,27.32
2016-09-04T10:47:31.707Z,27.32
2016-09-04T10:48:30.989Z,27.4
2016-09-04T10:49:31.658Z,27.25
2016-09-04T10:50:32.326Z,27.34
2016-09-04T10:51:31.605Z,27.17
2016-09-04T10:52:31.590Z,27.19
2016-09-04T10:53:31.558Z,27.12
2016-09-04T10:54:32.229Z,27.04
2016-09-04T10:55:32.205Z,26.89
2016-09-04T10:56:32.190Z,26.75
2016-09-04T10:57:30.768Z,26.73
2016-09-04T10:58:32.125Z,26.76
2016-09-04T10:59:31.404Z,26.65
2016-09-04T11:00:31.380Z,26.58
2016-09-04T11:01:32.048Z,26.57
2016-09-04T11:02:31.327Z,26.67
2016-09-04T11:03:31.302Z,26.67
2016-09-04T11:04:31.971Z,26.77
2016-09-04T11:05:31.944Z,26.88
2016-09-04T11:06:30.532Z,27.1
2016-09-04T11:07:31.900Z,27.24
2016-09-04T11:08:31.871Z,27.41
2016-09-04T11:09:31.856Z,27.54
2016-09-04T11:10:31.123Z,27.57
2016-09-04T11:11:31.098Z,27.31
2016-09-04T11:12:31.771Z,27.22
2016-09-04T11:13:31.054Z,27.24
2016-09-04T11:14:31.722Z,27.24
2016-09-04T11:15:31.696Z,27.09
2016-09-04T11:16:31.671Z,27.12
2016-09-04T11:17:31.695Z,27.1
2016-09-04T11:18:31.635Z,27.04
2016-09-04T11:19:31.607Z,26.99
2016-09-04T11:20:31.571Z,26.82
2016-09-04T11:21:31.542Z,26.77
2016-09-04T11:22:31.520Z,26.73
2016-09-04T11:23:31.495Z,26.75
2016-09-04T11:24:30.772Z,26.66
2016-09-04T11:25:30.751Z,26.51
2016-09-04T11:26:31.416Z,26.54
2016-09-04T11:27:31.393Z,26.35
2016-09-04T11:28:30.678Z,26.28
2016-09-04T11:29:30.648Z,26.29
2016-09-04T11:30:31.325Z,26.29
2016-09-04T11:31:31.299Z,26.23
2016-09-04T11:32:31.265Z,26.12
2016-09-04T11:33:31.237Z,25.79
2016-09-04T11:34:30.521Z,25.65
2016-09-04T11:35:31.186Z,25.64
2016-09-04T11:36:31.166Z,25.57
2016-09-04T11:37:31.137Z,25.35
2016-09-04T11:38:31.111Z,25.33
2016-09-04T11:39:31.093Z,25.13
2016-09-04T11:40:30.365Z,25.06
2016-09-04T11:41:31.041Z,25
2016-09-04T11:42:31.014Z,24.85
2016-09-04T11:43:30.984Z,25
2016-09-04T11:44:30.961Z,25.08
2016-09-04T11:45:30.241Z,24.96
2016-09-04T11:46:30.209Z,24.96
2016-09-04T11:47:30.888Z,24.98
2016-09-04T11:48:30.850Z,24.95
2016-09-04T11:49:30.132Z,24.88
2016-09-04T11:50:30.816Z,24.91
2016-09-04T11:51:30.081Z,24.91
2016-09-04T11:52:30.751Z,24.84
2016-09-04T11:53:30.721Z,24.71
2016-09-04T11:54:30.697Z,24.78
2016-09-04T11:55:29.970Z,24.73
2016-09-04T11:56:30.644Z,24.76
2016-09-04T11:57:30.628Z,24.64
2016-09-04T11:58:30.589Z,24.5
2016-09-04T11:59:29.875Z,24.43
2016-09-04T12:00:30.534Z,24.42
2016-09-04T12:01:30.514Z,24.32
2016-09-04T12:02:30.490Z,24.34
2016-09-04T12:03:30.460Z,24.3
2016-09-04T12:04:29.037Z,24.24
2016-09-04T12:05:29.710Z,24.2
2016-09-04T12:06:30.379Z,24.21
2016-09-04T12:07:30.355Z,24.15
2016-09-04T12:08:30.329Z,24.2
2016-09-04T12:09:30.304Z,24.16
2016-09-04T12:10:29.576Z,24.09
2016-09-04T12:11:29.556Z,24.09
2016-09-04T12:12:29.522Z,24.13
2016-09-04T12:13:30.194Z,24.15
2016-09-04T12:14:30.168Z,24.13
2016-09-04T12:15:30.141Z,24.12
2016-09-04T12:16:30.114Z,24.16
2016-09-04T12:17:30.091Z,23.97
2016-09-04T12:18:30.061Z,23.98
2016-09-04T12:19:29.342Z,24.02
2016-09-04T12:20:29.308Z,24.03
2016-09-04T12:21:29.976Z,24.03
2016-09-04T12:22:29.963Z,24
2016-09-04T12:23:29.938Z,24.02
2016-09-04T12:24:29.896Z,24.1
2016-09-04T12:25:29.878Z,24.18
2016-09-04T12:26:29.847Z,24.22
2016-09-04T12:27:29.134Z,24.28
2016-09-04T12:28:29.787Z,24.25
2016-09-04T12:29:29.074Z,24.28
2016-09-04T12:30:29.742Z,24.18
2016-09-04T12:31:29.012Z,24.16
2016-09-04T12:32:28.985Z,24.28
2016-09-04T12:33:29.660Z,24.27
2016-09-04T12:34:29.632Z,24.34
2016-09-04T12:35:29.598Z,24.43
2016-09-04T12:36:28.882Z,24.45
2016-09-04T12:37:29.551Z,24.5
2016-09-04T12:38:29.519Z,24.49
2016-09-04T12:39:28.799Z,24.61
2016-09-04T12:40:29.465Z,24.57
2016-09-04T12:41:29.442Z,24.76
2016-09-04T12:42:29.424Z,24.69
2016-09-04T12:43:29.387Z,24.84
2016-09-04T12:44:29.367Z,24.9
2016-09-04T12:45:28.637Z,24.98
2016-09-04T12:46:29.312Z,25.03
2016-09-04T12:47:29.282Z,25.08
2016-09-04T12:48:29.302Z,25.08
2016-09-04T12:49:29.227Z,25.15
2016-09-04T12:50:28.505Z,25.14
2016-09-04T12:51:29.187Z,25.14
2016-09-04T12:52:29.151Z,25.13
2016-09-04T12:53:29.120Z,25.1
2016-09-04T12:54:29.093Z,24.98
2016-09-04T12:55:29.072Z,24.9